Time;durP1;ratioP1;P1;durP2;ratioP2;P2;SDS_P1;SDS_P2;PMS_P1;PMS_P2;Temp;Humidity;BMP_temperature;BMP_pressure;BME280_temperature;BME280_humidity;BME280_pressure;Samples;Min_cycle;Max_cycle;Signal;HPM_P1;HPM_P2
2021/11/29 00:06:55;;;;;;;0.20;0.00;;;2.10;99.90;;;;;;20658194;28;20037;-44
2021/11/29 00:17:01;;;;;;;0.60;0.10;;;1.90;99.90;;;;;;20622333;28;20043;-45
2021/11/29 00:27:02;;;;;;;0.55;0.20;;;1.90;99.90;;;;;;20657213;28;20076;-44
2021/11/29 00:37:04;;;;;;;0.50;0.17;;;2.00;99.90;;;;;;20651426;28;20042;-44
2021/11/29 00:47:05;;;;;;;0.68;0.10;;;2.30;99.90;;;;;;20651482;28;20943;-44
2021/11/29 00:57:06;;;;;;;0.20;0.10;;;2.40;99.90;;;;;;20653598;28;20046;-44
2021/11/29 01:07:07;;;;;;;0.03;0.00;;;2.50;99.90;;;;;;20653791;28;20044;-44
2021/11/29 01:17:10;;;;;;;0.15;0.03;;;2.70;99.90;;;;;;20659095;28;20042;-44
2021/11/29 01:27:11;;;;;;;0.08;0.00;;;2.70;99.90;;;;;;20653152;28;21110;-44
2021/11/29 01:37:12;;;;;;;0.00;0.00;;;2.50;99.90;;;;;;20642277;28;20051;-44
2021/11/29 01:47:15;;;;;;;0.25;0.10;;;2.40;99.90;;;;;;20652344;28;20061;-44
2021/11/29 01:57:16;;;;;;;0.10;0.00;;;2.30;99.90;;;;;;20652091;28;20048;-44
2021/11/29 02:07:17;;;;;;;0.65;0.13;;;2.20;99.90;;;;;;20650391;28;20557;-44
2021/11/29 02:17:18;;;;;;;0.10;0.00;;;2.10;99.90;;;;;;20651238;28;20045;-44
2021/11/29 02:27:19;;;;;;;0.40;0.28;;;2.10;99.90;;;;;;20652082;28;20064;-44
2021/11/29 02:37:20;;;;;;;0.40;0.10;;;2.00;99.90;;;;;;20651510;28;20057;-44
2021/11/29 02:47:21;;;;;;;0.80;0.38;;;2.00;99.90;;;;;;20652276;28;20402;-44
2021/11/29 02:57:22;;;;;;;1.65;0.43;;;1.90;99.90;;;;;;20655563;28;20058;-44
2021/11/29 03:07:24;;;;;;;0.32;0.10;;;1.90;99.90;;;;;;20667117;28;20421;-44
2021/11/29 03:17:25;;;;;;;0.57;0.17;;;1.90;99.90;;;;;;20660891;28;20053;-44
2021/11/29 03:27:26;;;;;;;0.85;0.30;;;2.00;99.90;;;;;;20658989;28;20398;-44
2021/11/29 03:37:28;;;;;;;2.85;0.38;;;2.00;99.90;;;;;;20663486;28;20055;-44
2021/11/29 03:47:29;;;;;;;1.65;0.70;;;2.00;99.90;;;;;;20669946;28;20107;-44
2021/11/29 03:57:30;;;;;;;1.48;0.65;;;2.00;99.90;;;;;;20667679;28;20061;-44
2021/11/29 04:07:31;;;;;;;1.48;0.70;;;2.10;99.90;;;;;;20667128;28;20042;-44
2021/11/29 04:17:33;;;;;;;1.75;0.40;;;2.30;99.90;;;;;;20668062;28;20046;-44
2021/11/29 04:27:35;;;;;;;0.13;0.03;;;2.60;99.90;;;;;;20662641;28;20038;-44
2021/11/29 04:37:38;;;;;;;0.32;0.10;;;2.50;99.90;;;;;;20612936;28;20050;-44
2021/11/29 04:47:39;;;;;;;3.97;0.28;;;2.40;99.90;;;;;;20637137;28;20487;-44
2021/11/29 04:57:41;;;;;;;0.52;0.10;;;2.40;99.90;;;;;;20656006;28;20667;-44
2021/11/29 05:07:42;;;;;;;0.43;0.20;;;2.40;99.90;;;;;;20661685;28;20038;-44
2021/11/29 05:17:43;;;;;;;0.47;0.13;;;2.30;99.90;;;;;;20661309;28;20053;-45
2021/11/29 05:27:44;;;;;;;0.65;0.10;;;2.20;99.90;;;;;;20663574;28;20409;-44
2021/11/29 05:37:46;;;;;;;0.70;0.38;;;1.90;99.90;;;;;;20656938;28;20648;-44
2021/11/29 05:47:47;;;;;;;1.45;0.40;;;1.70;99.90;;;;;;20607978;28;20042;-44
2021/11/29 05:57:48;;;;;;;0.10;0.10;;;1.70;99.90;;;;;;20659522;28;20421;-44
2021/11/29 06:07:49;;;;;;;0.63;0.35;;;2.20;99.90;;;;;;20614677;28;20038;-46
2021/11/29 06:17:51;;;;;;;2.28;0.20;;;2.70;99.90;;;;;;20615784;28;20096;-45
2021/11/29 06:27:52;;;;;;;1.08;0.20;;;2.90;99.90;;;;;;20591219;28;20047;-44
2021/11/29 06:38:03;;;;;;;2.30;0.30;;;3.00;99.90;;;;;;20628829;28;20053;-44
2021/11/29 06:48:04;;;;;;;0.05;0.00;;;3.00;99.90;;;;;;20675611;28;20066;-44
2021/11/29 06:58:06;;;;;;;0.17;0.10;;;3.00;99.90;;;;;;20672777;28;20046;-44
2021/11/29 07:08:08;;;;;;;0.32;0.10;;;3.00;99.90;;;;;;20664926;28;20517;-45
2021/11/29 07:18:09;;;;;;;0.77;0.20;;;3.20;99.90;;;;;;20673983;28;20053;-44
2021/11/29 07:28:10;;;;;;;0.70;0.10;;;3.50;99.90;;;;;;20588943;28;20450;-44
2021/11/29 07:38:12;;;;;;;0.43;0.10;;;3.50;99.90;;;;;;20623572;28;20053;-44
2021/11/29 07:48:16;;;;;;;0.68;0.20;;;3.70;99.90;;;;;;20661416;28;20049;-44
2021/11/29 07:58:20;;;;;;;1.45;0.38;;;3.90;99.90;;;;;;20661976;28;20042;-45
2021/11/29 08:08:21;;;;;;;0.25;0.10;;;3.80;99.90;;;;;;20652118;28;20053;-45
2021/11/29 08:18:22;;;;;;;2.05;0.17;;;3.70;99.90;;;;;;20649952;28;20060;-46
2021/11/29 08:28:24;;;;;;;0.52;0.10;;;3.80;99.90;;;;;;20648931;28;20057;-47
2021/11/29 08:38:25;;;;;;;0.00;0.00;;;3.90;99.90;;;;;;20646486;28;20486;-46
2021/11/29 08:48:26;;;;;;;0.38;0.03;;;4.00;99.90;;;;;;20662946;28;20528;-46
2021/11/29 08:58:27;;;;;;;0.88;0.05;;;4.00;99.90;;;;;;20662632;28;20038;-46
2021/11/29 09:08:29;;;;;;;0.52;0.10;;;4.00;99.90;;;;;;20660584;28;20034;-45
2021/11/29 09:18:30;;;;;;;4.57;0.10;;;4.00;99.90;;;;;;20657457;28;20042;-45
2021/11/29 09:28:32;;;;;;;0.90;0.20;;;4.00;99.90;;;;;;20664443;28;20033;-44
2021/11/29 09:38:34;;;;;;;0.73;0.20;;;3.90;99.90;;;;;;20657827;28;20050;-44
2021/11/29 09:48:35;;;;;;;0.70;0.10;;;4.20;99.90;;;;;;20657151;28;20065;-44
2021/11/29 09:58:36;;;;;;;0.25;0.10;;;4.30;99.90;;;;;;20660145;28;20042;-45
2021/11/29 10:08:39;;;;;;;1.17;0.08;;;4.60;99.90;;;;;;20633760;28;20034;-44
2021/11/29 10:18:40;;;;;;;0.20;0.10;;;4.90;99.90;;;;;;20597825;28;20513;-45
2021/11/29 10:28:44;;;;;;;0.00;0.00;;;5.30;99.90;;;;;;20618621;28;20046;-44
2021/11/29 10:38:50;;;;;;;0.10;0.00;;;5.40;99.90;;;;;;20597706;28;20773;-44
2021/11/29 10:48:55;;;;;;;0.87;0.10;;;5.80;99.90;;;;;;20595536;28;20030;-44
2021/11/29 10:58:59;;;;;;;0.30;0.08;;;6.10;99.90;;;;;;20607482;28;20046;-44
2021/11/29 11:09:00;;;;;;;0.65;0.20;;;6.50;99.90;;;;;;20630746;28;20044;-44
2021/11/29 11:19:01;;;;;;;0.32;0.10;;;7.30;99.90;;;;;;20622448;28;20041;-45
2021/11/29 11:29:03;;;;;;;4.57;0.30;;;7.80;99.90;;;;;;20606730;28;20046;-45
2021/11/29 11:39:05;;;;;;;1.88;0.22;;;8.10;99.90;;;;;;20626417;28;20069;-44
2021/11/29 11:49:06;;;;;;;0.75;0.10;;;8.50;99.90;;;;;;20654498;28;20318;-45
2021/11/29 11:59:16;;;;;;;0.75;0.32;;;8.20;99.90;;;;;;20668473;28;20238;-44
2021/11/29 12:09:29;;;;;;;0.55;0.22;;;7.70;99.90;;;;;;20649459;28;20135;-45
2021/11/29 12:19:33;;;;;;;2.05;0.15;;;7.70;99.90;;;;;;20652748;28;20120;-44
2021/11/29 12:29:34;;;;;;;0.25;0.00;;;8.40;99.90;;;;;;20588104;28;20042;-44
2021/11/29 12:39:47;;;;;;;2.75;0.73;;;9.60;99.90;;;;;;20631519;28;20053;-44
2021/11/29 12:49:49;;;;;;;1.27;0.20;;;9.50;99.90;;;;;;20668935;28;20045;-45
2021/11/29 12:59:55;;;;;;;0.15;0.03;;;10.40;99.90;;;;;;20670196;28;20049;-44
2021/11/29 13:09:56;;;;;;;0.25;0.00;;;10.20;99.90;;;;;;20670471;28;20038;-44
2021/11/29 13:19:59;;;;;;;0.05;0.03;;;8.70;99.90;;;;;;20661593;28;20049;-45
2021/11/29 13:30:05;;;;;;;0.50;0.10;;;7.60;99.90;;;;;;20668044;28;20046;-45
2021/11/29 13:40:32;;;;;;;0.60;0.03;;;7.00;99.90;;;;;;20670663;28;20061;-46
2021/11/29 13:50:46;;;;;;;0.05;0.00;;;6.70;99.90;;;;;;20672236;28;20528;-46
2021/11/29 14:00:53;;;;;;;0.20;0.08;;;6.40;99.90;;;;;;20676395;28;20049;-46
2021/11/29 14:10:56;;;;;;;0.20;0.00;;;6.20;99.90;;;;;;20671520;28;20042;-46
2021/11/29 14:21:01;;;;;;;1.15;0.30;;;6.10;99.90;;;;;;20603145;28;20394;-46
2021/11/29 14:31:04;;;;;;;0.20;0.10;;;6.00;99.90;;;;;;20597123;28;20042;-46
2021/11/29 14:41:05;;;;;;;0.00;0.00;;;6.00;99.90;;;;;;20609455;28;21441;-46
2021/11/29 14:51:07;;;;;;;0.52;0.13;;;5.90;99.90;;;;;;20644525;28;20050;-46
2021/11/29 15:01:09;;;;;;;1.30;0.10;;;5.70;99.90;;;;;;20608096;28;20053;-47
2021/11/29 15:11:16;;;;;;;0.40;0.17;;;5.60;99.90;;;;;;20619161;28;20110;-46
2021/11/29 15:21:32;;;;;;;0.75;0.25;;;5.50;99.90;;;;;;20664663;28;20092;-46
2021/11/29 15:31:41;;;;;;;0.53;0.30;;;5.50;99.90;;;;;;20642965;28;20962;-46
2021/11/29 15:41:52;;;;;;;0.17;0.10;;;5.40;99.90;;;;;;20668880;28;20045;-46
2021/11/29 15:51:53;;;;;;;0.38;0.10;;;5.40;99.90;;;;;;20680358;28;20057;-46
2021/11/29 16:01:54;;;;;;;2.60;0.20;;;5.50;99.90;;;;;;20680796;28;20580;-45
2021/11/29 16:11:55;;;;;;;1.15;0.30;;;5.60;99.90;;;;;;20673520;28;20057;-47
2021/11/29 16:21:56;;;;;;;1.73;0.30;;;5.70;99.90;;;;;;20680005;28;20414;-46
2021/11/29 16:32:00;;;;;;;0.63;0.35;;;5.80;99.90;;;;;;20638141;28;20037;-46
2021/11/29 16:42:03;;;;;;;0.95;0.20;;;5.90;99.90;;;;;;20671883;28;20521;-47
2021/11/29 16:52:04;;;;;;;0.40;0.20;;;5.70;99.90;;;;;;20667710;28;20501;-44
2021/11/29 17:02:06;;;;;;;0.73;0.20;;;5.60;99.90;;;;;;20671654;28;20045;-44
2021/11/29 17:12:07;;;;;;;1.17;0.50;;;5.60;99.90;;;;;;20672869;28;20038;-44
2021/11/29 17:22:08;;;;;;;0.80;0.20;;;5.60;99.90;;;;;;20679996;28;20048;-44
2021/11/29 17:32:10;;;;;;;2.97;0.40;;;5.60;99.90;;;;;;20681435;28;20494;-44
2021/11/29 17:42:12;;;;;;;3.88;0.80;;;5.60;99.90;;;;;;20661523;28;20469;-44
2021/11/29 17:52:14;;;;;;;2.13;0.35;;;5.60;99.90;;;;;;20676809;28;20046;-44
2021/11/29 18:02:17;;;;;;;1.77;0.60;;;5.60;99.90;;;;;;20661717;28;20042;-44
2021/11/29 18:12:37;;;;;;;2.35;0.93;;;5.60;99.90;;;;;;20663618;28;20026;-44
2021/11/29 18:22:39;;;;;;;1.33;0.57;;;5.50;99.90;;;;;;20667629;28;20057;-44
2021/11/29 18:32:42;;;;;;;0.80;0.40;;;5.50;99.90;;;;;;20631819;28;20049;-44
2021/11/29 18:42:44;;;;;;;2.13;0.43;;;5.50;99.90;;;;;;20683513;28;20374;-46
2021/11/29 18:52:46;;;;;;;0.60;0.20;;;5.50;99.90;;;;;;20671915;28;20497;-44
2021/11/29 19:02:48;;;;;;;1.58;0.32;;;5.50;99.90;;;;;;20678420;28;20070;-44
2021/11/29 19:12:49;;;;;;;1.25;0.30;;;5.30;99.90;;;;;;20672186;28;20471;-44
2021/11/29 19:22:51;;;;;;;0.68;0.35;;;5.00;99.90;;;;;;20678593;28;20441;-46
2021/11/29 19:32:53;;;;;;;1.63;0.60;;;4.80;99.90;;;;;;20675974;28;20046;-44
2021/11/29 19:42:54;;;;;;;1.73;0.68;;;4.70;99.90;;;;;;20678808;28;20050;-44
2021/11/29 19:52:55;;;;;;;5.72;0.47;;;4.60;99.90;;;;;;20675344;28;20038;-44
2021/11/29 20:02:57;;;;;;;1.67;0.75;;;4.60;99.90;;;;;;20601198;28;20627;-44
2021/11/29 20:12:58;;;;;;;2.20;1.27;;;4.70;99.90;;;;;;20648793;28;20046;-44
2021/11/29 20:23:00;;;;;;;1.58;0.85;;;4.70;99.90;;;;;;20626634;28;21305;-44
2021/11/29 20:33:01;;;;;;;2.40;0.63;;;4.70;99.90;;;;;;20638458;28;20042;-44
2021/11/29 20:43:05;;;;;;;2.00;0.60;;;4.70;99.90;;;;;;20665427;28;20053;-44
2021/11/29 20:53:06;;;;;;;1.63;0.80;;;4.80;99.90;;;;;;20676234;28;20042;-44
2021/11/29 21:03:08;;;;;;;2.50;0.80;;;4.80;99.90;;;;;;20678690;28;20033;-44
2021/11/29 21:13:09;;;;;;;2.17;0.80;;;4.80;99.90;;;;;;20671462;28;20060;-44
2021/11/29 21:23:10;;;;;;;3.13;0.47;;;5.00;99.90;;;;;;20675807;28;20049;-44
2021/11/29 21:33:12;;;;;;;1.95;0.30;;;5.10;99.90;;;;;;20665750;28;20602;-44
2021/11/29 21:43:13;;;;;;;1.83;0.65;;;5.10;99.90;;;;;;20655232;28;20053;-44
2021/11/29 21:53:14;;;;;;;4.22;0.63;;;5.30;99.90;;;;;;20664494;28;20042;-44
2021/11/29 22:03:15;;;;;;;0.80;0.38;;;5.50;99.90;;;;;;20649210;28;20565;-46
2021/11/29 22:13:17;;;;;;;0.95;0.22;;;5.60;99.90;;;;;;20650291;28;20042;-44
2021/11/29 22:23:18;;;;;;;2.03;0.45;;;5.60;99.90;;;;;;20656031;28;20125;-44
2021/11/29 22:33:19;;;;;;;1.95;0.30;;;5.50;99.90;;;;;;20579665;28;20150;-44
2021/11/29 22:43:23;;;;;;;4.03;0.52;;;5.60;99.90;;;;;;20553285;28;20073;-44
2021/11/29 22:53:24;;;;;;;0.63;0.30;;;5.70;99.90;;;;;;20574117;28;20034;-44
2021/11/29 23:03:27;;;;;;;1.90;0.30;;;5.70;99.90;;;;;;20571225;28;20047;-44
2021/11/29 23:13:28;;;;;;;0.95;0.40;;;5.70;99.90;;;;;;20571612;28;20144;-44
2021/11/29 23:23:29;;;;;;;1.13;0.35;;;5.70;99.90;;;;;;20585556;28;20038;-44
2021/11/29 23:33:31;;;;;;;1.50;0.75;;;5.60;99.90;;;;;;20579273;28;20030;-44
2021/11/29 23:43:34;;;;;;;2.92;0.50;;;5.60;99.90;;;;;;20653071;28;20057;-43
2021/11/29 23:53:47;;;;;;;5.57;0.80;;;5.80;99.90;;;;;;20656036;28;20038;-44
